createdAt,value
2018-04-25T00:01:02.266Z,11.25
2018-04-25T00:03:29.843Z,11.12
2018-04-25T00:05:57.370Z,11.17
2018-04-25T00:08:25.002Z,11.14
2018-04-25T00:10:52.521Z,11.11
2018-04-25T00:13:20.078Z,11.20
2018-04-25T00:15:47.630Z,11.12
2018-04-25T00:18:15.206Z,11.09
2018-04-25T00:20:42.733Z,11.18
2018-04-25T00:23:10.363Z,10.71
2018-04-25T00:25:37.943Z,10.86
2018-04-25T00:28:05.471Z,10.81
2018-04-25T00:33:07.973Z,10.83
2018-04-25T00:35:35.526Z,10.91
2018-04-25T00:38:03.054Z,10.70
2018-04-25T00:40:30.602Z,10.77
2018-04-25T00:42:58.191Z,10.75
2018-04-25T00:45:25.866Z,10.49
2018-04-25T00:47:53.397Z,10.75
2018-04-25T00:50:20.935Z,10.49
2018-04-25T00:52:48.540Z,10.85
2018-04-25T00:55:16.203Z,10.71
2018-04-25T00:57:43.823Z,10.59
2018-04-25T01:00:11.393Z,10.55
2018-04-25T01:02:39.000Z,10.53
2018-04-25T01:05:06.526Z,10.29
2018-04-25T01:07:34.176Z,9.96
2018-04-25T01:10:01.774Z,10.27
2018-04-25T01:12:29.458Z,10.21
2018-04-25T01:14:57.083Z,10.39
2018-04-25T01:17:24.748Z,10.20
2018-04-25T01:19:52.313Z,10.11
2018-04-25T01:22:19.846Z,10.10
2018-04-25T01:24:47.420Z,10.10
2018-04-25T01:27:14.984Z,10.11
2018-04-25T01:29:43.374Z,10.26
2018-04-25T01:32:10.922Z,10.37
2018-04-25T01:34:42.278Z,10.19
2018-04-25T01:37:20.729Z,10.21
2018-04-25T01:39:52.654Z,9.86
2018-04-25T01:42:24.066Z,9.62
2018-04-25T01:44:58.411Z,9.82
2018-04-25T01:47:27.792Z,9.73
2018-04-25T01:53:10.143Z,9.98
2018-04-25T01:55:49.493Z,10.11
2018-04-25T01:58:28.915Z,10.05
2018-04-25T02:01:08.174Z,9.60
2018-04-25T02:03:45.447Z,9.79
2018-04-25T02:06:13.034Z,9.93
2018-04-25T02:08:40.657Z,9.99
2018-04-25T02:11:08.258Z,9.65
2018-04-25T02:13:35.808Z,9.82
2018-04-25T02:16:03.436Z,9.63
2018-04-25T02:18:36.063Z,9.86
2018-04-25T02:21:03.675Z,9.96
2018-04-25T02:23:31.217Z,9.99
2018-04-25T02:25:58.914Z,9.98
2018-04-25T02:28:26.443Z,10.03
2018-04-25T02:30:54.008Z,9.88
2018-04-25T02:33:21.530Z,9.93
2018-04-25T02:35:49.398Z,9.93
2018-04-25T02:38:17.001Z,9.62
2018-04-25T02:40:44.579Z,9.74
2018-04-25T02:43:12.231Z,9.70
2018-04-25T02:45:39.798Z,9.76
2018-04-25T02:48:07.391Z,9.43
2018-04-25T02:50:35.296Z,9.41
2018-04-25T02:53:02.860Z,9.14
2018-04-25T02:55:30.434Z,9.13
2018-04-25T02:57:58.000Z,9.13
2018-04-25T03:00:25.553Z,9.23
2018-04-25T03:02:53.153Z,9.39
2018-04-25T03:05:20.683Z,9.22
2018-04-25T03:07:48.238Z,9.38
2018-04-25T03:10:15.762Z,9.42
2018-04-25T03:12:43.344Z,9.55
2018-04-25T03:15:10.916Z,9.53
2018-04-25T03:17:38.470Z,9.68
2018-04-25T03:20:05.989Z,9.83
2018-04-25T03:22:33.629Z,9.90
2018-04-25T03:25:01.102Z,9.97
2018-04-25T03:27:28.676Z,10.01
2018-04-25T03:29:56.206Z,9.99
2018-04-25T03:32:23.781Z,10.05
2018-04-25T03:34:51.332Z,10.04
2018-04-25T03:37:18.914Z,10.13
2018-04-25T03:39:46.437Z,10.24
2018-04-25T03:42:14.009Z,10.14
2018-04-25T03:44:41.542Z,10.16
2018-04-25T03:47:09.122Z,10.38
2018-04-25T03:49:36.649Z,10.40
2018-04-25T03:52:04.256Z,10.38
2018-04-25T03:54:31.799Z,10.27
2018-04-25T03:56:59.330Z,10.28
2018-04-25T03:59:26.900Z,10.10
2018-04-25T04:01:54.455Z,9.99
2018-04-25T04:04:22.010Z,9.92
2018-04-25T04:06:49.543Z,9.87
2018-04-25T04:09:17.144Z,10.05
2018-04-25T04:11:44.666Z,10.09
2018-04-25T04:14:15.520Z,10.05
2018-04-25T04:16:43.237Z,10.11
2018-04-25T04:19:10.826Z,9.91
2018-04-25T04:21:38.372Z,10.09
2018-04-25T04:24:06.571Z,9.96
2018-04-25T04:26:34.131Z,10.00
2018-04-25T04:29:01.709Z,10.06
2018-04-25T04:31:29.232Z,10.11
2018-04-25T04:33:56.796Z,9.98
2018-04-25T04:36:24.336Z,10.18
2018-04-25T04:38:51.917Z,10.24
2018-04-25T04:41:19.487Z,10.23
2018-04-25T04:43:47.070Z,10.29
2018-04-25T04:46:14.681Z,10.12
2018-04-25T04:48:42.248Z,10.19
2018-04-25T04:51:09.815Z,10.16
2018-04-25T04:53:37.430Z,10.23
2018-04-25T04:56:04.955Z,10.34
2018-04-25T04:58:32.697Z,10.39
2018-04-25T05:01:00.210Z,10.54
2018-04-25T05:03:27.763Z,10.54
2018-04-25T05:05:55.366Z,10.69
2018-04-25T05:08:23.111Z,10.76
2018-04-25T05:10:50.668Z,10.75
2018-04-25T05:13:18.222Z,10.87
2018-04-25T05:15:45.775Z,10.91
2018-04-25T05:18:13.327Z,11.00
2018-04-25T05:20:40.938Z,11.05
2018-04-25T05:23:08.530Z,11.08
2018-04-25T05:25:36.080Z,11.08
2018-04-25T05:28:03.837Z,11.12
2018-04-25T05:30:31.666Z,11.34
2018-04-25T05:32:59.587Z,11.72
2018-04-25T05:35:27.165Z,11.89
2018-04-25T05:37:54.693Z,12.13
2018-04-25T05:40:23.598Z,12.23
2018-04-25T05:42:51.219Z,12.66
2018-04-25T05:45:18.753Z,12.85
2018-04-25T05:47:46.269Z,13.04
2018-04-25T05:50:13.830Z,13.12
2018-04-25T05:52:41.355Z,13.24
2018-04-25T05:55:08.906Z,13.29
2018-04-25T05:57:36.447Z,13.38
2018-04-25T06:00:04.059Z,13.34
2018-04-25T06:02:31.638Z,13.27
2018-04-25T06:04:59.186Z,13.29
2018-04-25T06:07:26.750Z,13.24
2018-04-25T06:09:54.645Z,13.31
2018-04-25T06:12:22.239Z,13.39
2018-04-25T06:14:49.750Z,13.43
2018-04-25T06:17:17.279Z,13.52
2018-04-25T06:19:44.935Z,13.56
2018-04-25T06:22:12.405Z,13.70
2018-04-25T06:24:39.961Z,13.69
2018-04-25T06:27:07.905Z,13.89
2018-04-25T06:29:35.467Z,13.86
2018-04-25T06:32:03.024Z,13.99
2018-04-25T06:34:30.638Z,13.88
2018-04-25T06:36:58.228Z,13.92
2018-04-25T06:39:25.931Z,13.98
2018-04-25T06:41:55.560Z,13.99
2018-04-25T06:44:24.914Z,14.10
2018-04-25T06:46:52.476Z,14.18
2018-04-25T06:49:20.052Z,14.16
2018-04-25T06:51:47.709Z,14.13
2018-04-25T06:54:15.290Z,14.34
2018-04-25T06:56:42.857Z,14.29
2018-04-25T06:59:10.478Z,14.19
2018-04-25T07:01:38.734Z,14.27
2018-04-25T07:04:06.322Z,14.28
2018-04-25T07:06:33.871Z,14.34
2018-04-25T07:09:01.427Z,14.47
2018-04-25T07:11:29.002Z,14.30
2018-04-25T07:13:56.527Z,14.40
2018-04-25T07:16:24.227Z,14.21
2018-04-25T07:18:51.760Z,14.33
2018-04-25T07:21:19.335Z,14.30
2018-04-25T07:23:46.906Z,14.56
2018-04-25T07:26:15.092Z,14.60
2018-04-25T07:28:42.703Z,14.60
2018-04-25T07:31:10.589Z,14.58
2018-04-25T07:33:38.975Z,14.62
2018-04-25T07:36:06.556Z,14.78
2018-04-25T07:38:34.103Z,15.01
2018-04-25T07:41:01.661Z,14.80
2018-04-25T07:43:29.207Z,15.03
2018-04-25T07:45:56.778Z,15.12
2018-04-25T07:48:24.309Z,15.16
2018-04-25T07:50:51.865Z,15.60
2018-04-25T07:53:19.447Z,15.27
2018-04-25T07:55:47.017Z,15.23
2018-04-25T07:58:14.569Z,15.29
2018-04-25T08:00:42.227Z,14.99
2018-04-25T08:03:09.888Z,15.10
2018-04-25T08:05:37.446Z,14.99
2018-04-25T08:08:04.977Z,14.99
2018-04-25T08:10:32.554Z,14.98
2018-04-25T08:13:11.849Z,14.94
2018-04-25T08:15:51.340Z,14.77
2018-04-25T08:18:30.735Z,14.80
2018-04-25T08:24:11.919Z,14.59
2018-04-25T08:26:39.495Z,14.65
2018-04-25T08:29:07.098Z,14.65
2018-04-25T08:31:35.073Z,14.62
2018-04-25T08:34:03.350Z,14.72
2018-04-25T08:36:31.322Z,14.82
2018-04-25T08:38:58.871Z,14.97
2018-04-25T08:41:27.232Z,15.05
2018-04-25T08:43:57.503Z,14.96
2018-04-25T08:46:25.337Z,15.28
2018-04-25T08:48:53.139Z,15.23
2018-04-25T08:51:23.187Z,15.38
2018-04-25T08:53:50.918Z,15.54
2018-04-25T08:56:19.621Z,15.64
2018-04-25T08:58:49.173Z,15.75
2018-04-25T09:01:16.860Z,16.01
2018-04-25T09:03:44.493Z,15.85
2018-04-25T09:06:13.695Z,15.70
2018-04-25T09:08:43.077Z,15.93
2018-04-25T09:11:10.952Z,15.69
2018-04-25T09:13:39.813Z,15.58
2018-04-25T09:16:08.164Z,15.63
2018-04-25T09:18:38.200Z,15.63
2018-04-25T09:21:06.143Z,15.58
2018-04-25T09:23:33.997Z,15.70
2018-04-25T09:26:01.573Z,15.64
2018-04-25T09:28:29.102Z,15.64
2018-04-25T09:30:56.649Z,15.69
2018-04-25T09:33:24.514Z,15.62
2018-04-25T09:35:52.053Z,15.74
2018-04-25T09:38:20.158Z,15.61
2018-04-25T09:40:48.013Z,15.47
2018-04-25T09:43:18.561Z,15.47
2018-04-25T09:45:46.601Z,15.42
2018-04-25T09:48:19.737Z,15.37
2018-04-25T09:50:47.831Z,15.29
2018-04-25T09:53:15.421Z,15.20
2018-04-25T09:55:43.327Z,15.19
2018-04-25T09:58:10.893Z,15.21
2018-04-25T10:00:44.080Z,15.32
2018-04-25T10:03:17.630Z,15.50
2018-04-25T10:05:45.234Z,15.61
2018-04-25T10:08:12.890Z,15.76
2018-04-25T10:10:40.484Z,15.97
2018-04-25T10:13:11.398Z,16.08
2018-04-25T10:15:39.662Z,16.18
2018-04-25T10:18:07.221Z,16.48
2018-04-25T10:20:38.395Z,16.51
2018-04-25T10:23:06.227Z,16.50
2018-04-25T10:25:34.046Z,16.41
2018-04-25T10:28:03.420Z,16.27
2018-04-25T10:30:32.935Z,16.34
2018-04-25T10:33:02.512Z,16.17
2018-04-25T10:35:30.994Z,15.99
2018-04-25T10:37:58.536Z,15.87
2018-04-25T10:40:28.325Z,15.71
2018-04-25T10:42:56.419Z,15.81
2018-04-25T10:45:23.964Z,15.73
2018-04-25T10:47:51.538Z,15.96
2018-04-25T10:50:19.108Z,15.76
2018-04-25T10:52:47.081Z,15.78
2018-04-25T10:55:14.799Z,15.95
2018-04-25T10:57:42.558Z,15.84
2018-04-25T11:00:10.148Z,15.64
2018-04-25T11:02:37.766Z,15.55
2018-04-25T11:05:05.356Z,15.55
2018-04-25T11:07:32.910Z,15.61
2018-04-25T11:10:00.443Z,15.52
2018-04-25T11:12:27.994Z,15.47
2018-04-25T11:14:55.520Z,15.75
2018-04-25T11:17:23.085Z,15.85
2018-04-25T11:19:50.625Z,15.85
2018-04-25T11:22:18.201Z,15.87
2018-04-25T11:24:45.715Z,16.12
2018-04-25T11:27:13.253Z,16.23
2018-04-25T11:29:40.880Z,16.15
2018-04-25T11:32:08.438Z,16.12
2018-04-25T11:34:35.986Z,16.24
2018-04-25T11:37:03.508Z,16.16
2018-04-25T11:39:31.067Z,16.08
2018-04-25T11:41:58.620Z,16.05
2018-04-25T11:44:31.048Z,16.03
2018-04-25T11:47:01.220Z,16.34
2018-04-25T11:49:28.812Z,16.59
2018-04-25T11:51:57.146Z,16.24
2018-04-25T11:54:25.033Z,16.27
2018-04-25T11:56:52.557Z,16.34
2018-04-25T11:59:20.110Z,16.36
2018-04-25T12:01:47.639Z,16.47
2018-04-25T12:04:15.214Z,16.14
2018-04-25T12:06:42.747Z,15.99
2018-04-25T12:09:10.339Z,16.04
2018-04-25T12:11:37.893Z,16.04
2018-04-25T12:14:05.445Z,15.88
2018-04-25T12:16:33.000Z,15.93
2018-04-25T12:19:00.597Z,15.82
2018-04-25T12:21:28.133Z,16.14
2018-04-25T12:23:55.685Z,15.95
2018-04-25T12:26:23.246Z,15.88
2018-04-25T12:28:50.914Z,16.21
2018-04-25T12:31:18.637Z,16.05
2018-04-25T12:33:46.236Z,16.10
2018-04-25T12:36:13.968Z,15.94
2018-04-25T12:38:43.278Z,16.24
2018-04-25T12:41:11.273Z,16.24
2018-04-25T12:43:40.153Z,16.38
2018-04-25T12:46:08.502Z,16.49
2018-04-25T12:48:38.253Z,16.15
2018-04-25T12:51:08.156Z,16.49
2018-04-25T12:53:36.710Z,16.78
2018-04-25T12:56:04.387Z,16.61
2018-04-25T12:58:32.132Z,17.40
2018-04-25T13:01:00.667Z,17.02
2018-04-25T13:03:28.929Z,17.15
2018-04-25T13:05:57.195Z,17.59
2018-04-25T13:08:25.162Z,17.50
2018-04-25T13:10:53.250Z,17.57
2018-04-25T13:13:24.925Z,17.45
2018-04-25T13:15:53.443Z,17.62
2018-04-25T13:18:21.181Z,17.87
2018-04-25T13:20:48.738Z,17.41
2018-04-25T13:23:16.337Z,17.72
2018-04-25T13:25:44.361Z,17.90
2018-04-25T13:28:17.543Z,17.54
2018-04-25T13:30:46.470Z,18.08
2018-04-25T13:33:16.717Z,18.46
2018-04-25T13:35:47.175Z,18.24
2018-04-25T13:38:14.739Z,17.70
2018-04-25T13:40:44.801Z,17.38
2018-04-25T13:43:17.157Z,17.61
2018-04-25T13:45:45.693Z,17.69
2018-04-25T13:48:13.851Z,18.12
2018-04-25T13:50:43.372Z,18.50
2018-04-25T13:53:11.911Z,17.65
2018-04-25T13:55:41.093Z,18.44
2018-04-25T13:58:11.693Z,17.76
2018-04-25T14:00:44.002Z,18.47
2018-04-25T14:03:13.142Z,18.78
2018-04-25T14:05:42.059Z,18.39
2018-04-25T14:08:11.963Z,18.84
2018-04-25T14:10:40.127Z,18.71
2018-04-25T14:13:08.562Z,18.39
2018-04-25T14:15:36.726Z,18.55
2018-04-25T14:18:04.525Z,18.48
2018-04-25T14:20:33.062Z,18.67
2018-04-25T14:23:01.507Z,18.97
2018-04-25T14:25:29.133Z,19.07
2018-04-25T14:27:56.642Z,18.56
2018-04-25T14:30:24.285Z,18.56
2018-04-25T14:32:52.321Z,18.98
2018-04-25T14:35:21.342Z,18.99
2018-04-25T14:37:50.437Z,18.96
2018-04-25T14:40:18.326Z,18.90
2018-04-25T14:42:45.857Z,19.14
2018-04-25T14:45:13.405Z,18.94
2018-04-25T14:47:41.961Z,18.26
2018-04-25T14:50:10.542Z,18.06
2018-04-25T14:52:38.158Z,18.12
2018-04-25T14:55:05.721Z,17.78
2018-04-25T14:57:33.242Z,17.59
2018-04-25T15:00:00.948Z,16.76
2018-04-25T15:02:28.500Z,16.36
2018-04-25T15:04:56.150Z,16.23
2018-04-25T15:07:23.720Z,16.08
2018-04-25T15:09:51.284Z,16.05
2018-04-25T15:12:18.833Z,16.04
2018-04-25T15:14:46.366Z,15.67
2018-04-25T15:17:13.943Z,15.56
2018-04-25T15:19:41.493Z,15.48
2018-04-25T15:22:09.075Z,15.46
2018-04-25T15:24:36.737Z,15.57
2018-04-25T15:27:04.504Z,15.58
2018-04-25T15:29:33.184Z,14.96
2018-04-25T15:32:00.848Z,14.82
2018-04-25T15:34:28.413Z,14.77
2018-04-25T15:36:56.079Z,14.52
2018-04-25T15:39:26.403Z,14.44
2018-04-25T15:41:56.177Z,14.45
2018-04-25T15:44:24.726Z,14.52
2018-04-25T15:46:52.432Z,14.30
2018-04-25T15:49:20.216Z,14.31
2018-04-25T15:51:48.006Z,14.12
2018-04-25T15:54:17.454Z,13.74
2018-04-25T15:56:47.458Z,13.77
2018-04-25T15:59:15.163Z,13.70
2018-04-25T16:01:45.464Z,13.71
2018-04-25T16:04:14.055Z,13.64
2018-04-25T16:06:45.263Z,13.65
2018-04-25T16:09:14.367Z,13.58
2018-04-25T16:11:41.878Z,13.62
2018-04-25T16:14:11.565Z,13.80
2018-04-25T16:16:40.166Z,13.64
2018-04-25T16:19:08.494Z,13.49
2018-04-25T16:21:36.004Z,13.41
2018-04-25T16:24:05.522Z,13.56
2018-04-25T16:26:34.175Z,13.50
2018-04-25T16:29:01.725Z,13.59
2018-04-25T16:31:32.559Z,13.69
2018-04-25T16:34:02.725Z,13.79
2018-04-25T16:36:30.791Z,13.80
2018-04-25T16:38:59.085Z,13.58
2018-04-25T16:41:28.950Z,13.64
2018-04-25T16:43:56.620Z,13.56
2018-04-25T16:46:25.602Z,13.61
2018-04-25T16:48:56.673Z,13.67
2018-04-25T16:51:27.045Z,13.64
2018-04-25T16:53:57.017Z,13.48
2018-04-25T16:56:24.556Z,13.51
2018-04-25T16:58:53.354Z,13.43
2018-04-25T17:01:22.305Z,13.41
2018-04-25T17:03:52.003Z,13.34
2018-04-25T17:06:19.848Z,13.47
2018-04-25T17:08:47.911Z,13.50
2018-04-25T17:11:16.974Z,13.41
2018-04-25T17:13:46.482Z,13.69
2018-04-25T17:16:18.652Z,13.55
2018-04-25T17:18:49.285Z,13.71
2018-04-25T17:21:17.981Z,14.15
2018-04-25T17:23:46.670Z,13.85
2018-04-25T17:26:15.490Z,13.86
2018-04-25T17:28:44.494Z,13.75
2018-04-25T17:31:14.542Z,13.76
2018-04-25T17:33:42.862Z,13.77
2018-04-25T17:36:10.717Z,13.64
2018-04-25T17:38:38.441Z,13.54
2018-04-25T17:41:06.314Z,13.75
2018-04-25T17:43:34.178Z,13.57
2018-04-25T17:46:02.917Z,13.36
2018-04-25T17:48:30.821Z,13.34
2018-04-25T17:51:00.377Z,13.33
2018-04-25T17:53:31.037Z,13.18
2018-04-25T17:55:58.656Z,13.15
2018-04-25T17:58:26.334Z,12.99
2018-04-25T18:00:54.139Z,13.00
2018-04-25T18:03:21.740Z,12.95
2018-04-25T18:05:49.264Z,12.93
2018-04-25T18:08:16.812Z,12.97
2018-04-25T18:10:44.367Z,12.75
2018-04-25T18:13:11.898Z,12.70
2018-04-25T18:15:39.822Z,12.70
2018-04-25T18:18:07.375Z,12.70
2018-04-25T18:20:34.932Z,12.65
2018-04-25T18:23:02.453Z,12.68
2018-04-25T18:25:30.000Z,12.63
2018-04-25T18:27:57.534Z,12.71
2018-04-25T18:30:25.142Z,12.54
2018-04-25T18:32:52.663Z,12.64
2018-04-25T18:35:20.214Z,12.55
2018-04-25T18:37:47.725Z,12.41
2018-04-25T18:40:15.270Z,13.10
2018-04-25T18:42:43.347Z,13.15
2018-04-25T18:45:11.119Z,12.70
2018-04-25T18:47:38.654Z,12.62
2018-04-25T18:50:06.213Z,12.50
2018-04-25T18:52:33.762Z,12.53
2018-04-25T18:55:02.240Z,12.56
2018-04-25T18:57:30.092Z,12.45
2018-04-25T19:00:09.812Z,12.43
2018-04-25T19:02:37.339Z,12.46
2018-04-25T19:05:04.963Z,12.34
2018-04-25T19:07:32.621Z,12.41
2018-04-25T19:10:00.227Z,12.26
2018-04-25T19:12:27.723Z,12.29
2018-04-25T19:14:55.402Z,12.21
2018-04-25T19:17:22.975Z,12.20
2018-04-25T19:19:51.531Z,12.25
2018-04-25T19:22:19.850Z,12.23
2018-04-25T19:24:47.484Z,12.33
2018-04-25T19:27:15.026Z,12.18
2018-04-25T19:29:43.461Z,12.16
2018-04-25T19:32:11.023Z,12.13
2018-04-25T19:34:38.643Z,12.21
2018-04-25T19:37:06.215Z,12.21
2018-04-25T19:39:33.754Z,12.18
2018-04-25T19:42:01.318Z,12.28
2018-04-25T19:44:28.876Z,12.20
2018-04-25T19:46:56.433Z,12.09
2018-04-25T19:49:24.001Z,12.18
2018-04-25T19:51:51.546Z,12.12
2018-04-25T19:54:21.861Z,12.12
2018-04-25T19:56:49.563Z,12.07
2018-04-25T19:59:17.166Z,12.07
2018-04-25T20:01:45.763Z,12.03
2018-04-25T20:04:15.289Z,12.17
2018-04-25T20:06:43.651Z,12.01
2018-04-25T20:09:11.229Z,11.94
2018-04-25T20:11:38.793Z,11.82
2018-04-25T20:14:06.346Z,11.77
2018-04-25T20:16:33.904Z,11.71
2018-04-25T20:19:01.463Z,11.78
2018-04-25T20:21:29.087Z,11.77
2018-04-25T20:23:56.703Z,11.81
2018-04-25T20:26:24.349Z,11.90
2018-04-25T20:28:51.888Z,11.86
2018-04-25T20:31:19.446Z,11.75
2018-04-25T20:33:46.973Z,11.76
2018-04-25T20:36:14.606Z,11.59
2018-04-25T20:38:42.254Z,11.62
2018-04-25T20:41:09.807Z,11.58
2018-04-25T20:43:37.415Z,11.52
2018-04-25T20:46:05.032Z,11.39
2018-04-25T20:48:32.760Z,11.52
2018-04-25T20:51:00.462Z,11.56
2018-04-25T20:53:28.016Z,11.53
2018-04-25T20:55:57.042Z,11.51
2018-04-25T20:58:24.615Z,11.60
2018-04-25T21:00:52.151Z,11.52
2018-04-25T21:03:21.425Z,11.51
2018-04-25T21:05:49.101Z,11.34
2018-04-25T21:08:17.007Z,11.34
2018-04-25T21:10:45.495Z,11.19
2018-04-25T21:13:14.533Z,11.21
2018-04-25T21:15:42.485Z,11.19
2018-04-25T21:18:10.860Z,11.12
2018-04-25T21:20:40.965Z,11.15
2018-04-25T21:23:08.798Z,10.97
2018-04-25T21:25:36.317Z,10.83
2018-04-25T21:28:03.940Z,10.97
2018-04-25T21:30:35.176Z,11.02
2018-04-25T21:33:03.501Z,11.04
2018-04-25T21:35:31.162Z,11.04
2018-04-25T21:37:58.729Z,11.11
2018-04-25T21:40:26.269Z,10.94
2018-04-25T21:42:53.838Z,10.91
2018-04-25T21:45:23.059Z,11.01
2018-04-25T21:47:52.829Z,11.07
2018-04-25T21:50:21.659Z,10.99
2018-04-25T21:52:49.312Z,10.95
2018-04-25T21:55:19.941Z,10.97
2018-04-25T21:57:47.834Z,10.84
2018-04-25T22:00:15.725Z,10.59
2018-04-25T22:02:44.145Z,10.45
2018-04-25T22:05:11.685Z,10.53
2018-04-25T22:07:39.367Z,10.65
2018-04-25T22:10:06.884Z,10.31
2018-04-25T22:12:34.467Z,10.35
2018-04-25T22:15:02.052Z,10.38
2018-04-25T22:17:29.589Z,10.24
2018-04-25T22:19:58.709Z,10.28
2018-04-25T22:22:26.567Z,10.39
2018-04-25T22:24:55.353Z,10.35
2018-04-25T22:27:23.809Z,10.24
2018-04-25T22:29:51.850Z,9.82
2018-04-25T22:32:20.456Z,9.76
2018-04-25T22:34:50.112Z,9.83
2018-04-25T22:37:17.687Z,9.70
2018-04-25T22:39:45.239Z,9.67
2018-04-25T22:42:12.813Z,9.66
2018-04-25T22:44:40.358Z,9.76
2018-04-25T22:47:07.998Z,9.76
2018-04-25T22:49:39.338Z,9.83
2018-04-25T22:52:10.993Z,9.87
2018-04-25T22:54:41.975Z,9.60
2018-04-25T22:57:10.854Z,9.49
2018-04-25T22:59:38.426Z,9.56
2018-04-25T23:02:06.049Z,9.74
2018-04-25T23:04:34.181Z,9.89
2018-04-25T23:07:01.736Z,9.81
2018-04-25T23:09:29.445Z,9.80
2018-04-25T23:11:57.055Z,9.78
2018-04-25T23:14:24.666Z,9.73
2018-04-25T23:16:52.195Z,9.81
2018-04-25T23:19:19.771Z,9.82
2018-04-25T23:21:47.298Z,9.78
2018-04-25T23:24:14.873Z,9.80
2018-04-25T23:26:42.462Z,9.72
2018-04-25T23:29:10.129Z,9.62
2018-04-25T23:31:37.684Z,9.40
2018-04-25T23:34:05.235Z,9.18
2018-04-25T23:36:32.802Z,9.30
2018-04-25T23:39:00.468Z,9.32
2018-04-25T23:41:27.990Z,9.52
2018-04-25T23:43:55.543Z,9.55
2018-04-25T23:46:23.068Z,9.61
2018-04-25T23:48:50.622Z,9.53
2018-04-25T23:51:18.272Z,9.49
2018-04-25T23:53:45.848Z,9.54
2018-04-25T23:56:14.276Z,9.38
2018-04-25T23:58:41.809Z,9.17
